sensor_id;sensor_type;location;lat;lon;timestamp;P1;durP1;ratioP1;P2;durP2;ratioP2
51654;SDS011;37732;53.106;7.030;2023-07-29T00:00:13;15.32;;;13.80;;
51654;SDS011;37732;53.106;7.030;2023-07-29T00:02:40;13.30;;;11.93;;
51654;SDS011;37732;53.106;7.030;2023-07-29T00:05:06;12.23;;;9.30;;
51654;SDS011;37732;53.106;7.030;2023-07-29T00:07:33;12.50;;;10.63;;
51654;SDS011;37732;53.106;7.030;2023-07-29T00:09:59;12.23;;;11.02;;
51654;SDS011;37732;53.106;7.030;2023-07-29T00:12:25;13.43;;;11.50;;
51654;SDS011;37732;53.106;7.030;2023-07-29T00:14:52;8.77;;;7.72;;
51654;SDS011;37732;53.106;7.030;2023-07-29T00:17:19;11.00;;;8.07;;
51654;SDS011;37732;53.106;7.030;2023-07-29T00:19:47;9.73;;;7.75;;
51654;SDS011;37732;53.106;7.030;2023-07-29T00:22:13;9.88;;;8.88;;
51654;SDS011;37732;53.106;7.030;2023-07-29T00:24:40;9.07;;;8.15;;
51654;SDS011;37732;53.106;7.030;2023-07-29T00:27:07;9.10;;;7.75;;
51654;SDS011;37732;53.106;7.030;2023-07-29T00:29:34;10.35;;;9.35;;
51654;SDS011;37732;53.106;7.030;2023-07-29T00:32:02;8.38;;;7.15;;
51654;SDS011;37732;53.106;7.030;2023-07-29T00:34:28;11.77;;;8.85;;
51654;SDS011;37732;53.106;7.030;2023-07-29T00:36:56;10.57;;;9.25;;
51654;SDS011;37732;53.106;7.030;2023-07-29T00:39:23;9.50;;;8.52;;
51654;SDS011;37732;53.106;7.030;2023-07-29T00:41:51;9.40;;;8.35;;
51654;SDS011;37732;53.106;7.030;2023-07-29T00:44:18;9.70;;;8.38;;
51654;SDS011;37732;53.106;7.030;2023-07-29T00:46:44;9.30;;;7.30;;
51654;SDS011;37732;53.106;7.030;2023-07-29T00:49:13;12.27;;;10.40;;
51654;SDS011;37732;53.106;7.030;2023-07-29T00:51:40;9.90;;;8.63;;
51654;SDS011;37732;53.106;7.030;2023-07-29T00:54:06;9.95;;;8.27;;
51654;SDS011;37732;53.106;7.030;2023-07-29T00:56:34;10.25;;;7.88;;
51654;SDS011;37732;53.106;7.030;2023-07-29T00:59:01;11.95;;;10.68;;
51654;SDS011;37732;53.106;7.030;2023-07-29T01:04:03;11.52;;;10.35;;
51654;SDS011;37732;53.106;7.030;2023-07-29T01:09:12;9.27;;;7.25;;
51654;SDS011;37732;53.106;7.030;2023-07-29T01:17:09;15.50;;;12.00;;
51654;SDS011;37732;53.106;7.030;2023-07-29T01:22:24;14.38;;;12.10;;
51654;SDS011;37732;53.106;7.030;2023-07-29T01:24:51;16.45;;;13.30;;
51654;SDS011;37732;53.106;7.030;2023-07-29T01:27:19;16.38;;;14.52;;
51654;SDS011;37732;53.106;7.030;2023-07-29T01:29:46;16.30;;;14.07;;
51654;SDS011;37732;53.106;7.030;2023-07-29T01:32:18;16.90;;;14.10;;
51654;SDS011;37732;53.106;7.030;2023-07-29T01:34:52;18.48;;;15.68;;
51654;SDS011;37732;53.106;7.030;2023-07-29T01:37:22;18.92;;;16.30;;
51654;SDS011;37732;53.106;7.030;2023-07-29T01:39:52;14.85;;;13.25;;
51654;SDS011;37732;53.106;7.030;2023-07-29T01:42:21;19.88;;;14.65;;
51654;SDS011;37732;53.106;7.030;2023-07-29T01:44:49;16.10;;;12.70;;
51654;SDS011;37732;53.106;7.030;2023-07-29T01:47:16;15.13;;;12.13;;
51654;SDS011;37732;53.106;7.030;2023-07-29T01:49:43;13.85;;;12.25;;
51654;SDS011;37732;53.106;7.030;2023-07-29T01:52:09;16.02;;;11.77;;
51654;SDS011;37732;53.106;7.030;2023-07-29T01:54:37;16.52;;;11.68;;
51654;SDS011;37732;53.106;7.030;2023-07-29T01:57:03;17.02;;;14.50;;
51654;SDS011;37732;53.106;7.030;2023-07-29T01:59:29;14.25;;;12.75;;
51654;SDS011;37732;53.106;7.030;2023-07-29T02:01:55;13.45;;;11.40;;
51654;SDS011;37732;53.106;7.030;2023-07-29T02:04:21;20.15;;;15.07;;
51654;SDS011;37732;53.106;7.030;2023-07-29T02:06:48;13.88;;;12.15;;
51654;SDS011;37732;53.106;7.030;2023-07-29T02:09:14;14.80;;;12.13;;
51654;SDS011;37732;53.106;7.030;2023-07-29T02:11:42;18.55;;;13.07;;
51654;SDS011;37732;53.106;7.030;2023-07-29T02:14:09;17.15;;;13.07;;
51654;SDS011;37732;53.106;7.030;2023-07-29T02:16:36;14.45;;;12.02;;
51654;SDS011;37732;53.106;7.030;2023-07-29T02:19:04;14.48;;;11.38;;
51654;SDS011;37732;53.106;7.030;2023-07-29T02:21:31;13.77;;;11.65;;
51654;SDS011;37732;53.106;7.030;2023-07-29T02:23:58;12.75;;;11.48;;
51654;SDS011;37732;53.106;7.030;2023-07-29T02:26:26;15.13;;;12.40;;
51654;SDS011;37732;53.106;7.030;2023-07-29T02:28:53;17.85;;;12.73;;
51654;SDS011;37732;53.106;7.030;2023-07-29T02:33:45;14.43;;;11.80;;
51654;SDS011;37732;53.106;7.030;2023-07-29T02:36:12;20.40;;;13.90;;
51654;SDS011;37732;53.106;7.030;2023-07-29T02:38:40;20.88;;;15.23;;
51654;SDS011;37732;53.106;7.030;2023-07-29T02:41:07;14.60;;;12.77;;
51654;SDS011;37732;53.106;7.030;2023-07-29T02:43:35;13.57;;;11.82;;
51654;SDS011;37732;53.106;7.030;2023-07-29T02:46:01;13.32;;;10.95;;
51654;SDS011;37732;53.106;7.030;2023-07-29T02:48:28;14.45;;;11.70;;
51654;SDS011;37732;53.106;7.030;2023-07-29T02:50:56;14.23;;;12.40;;
51654;SDS011;37732;53.106;7.030;2023-07-29T02:53:22;13.98;;;12.07;;
51654;SDS011;37732;53.106;7.030;2023-07-29T02:55:49;17.23;;;12.82;;
51654;SDS011;37732;53.106;7.030;2023-07-29T02:58:16;13.10;;;11.70;;
51654;SDS011;37732;53.106;7.030;2023-07-29T03:00:44;13.68;;;10.60;;
51654;SDS011;37732;53.106;7.030;2023-07-29T03:03:13;11.88;;;9.57;;
51654;SDS011;37732;53.106;7.030;2023-07-29T03:05:41;11.50;;;9.70;;
51654;SDS011;37732;53.106;7.030;2023-07-29T03:08:08;15.85;;;10.93;;
51654;SDS011;37732;53.106;7.030;2023-07-29T03:10:35;16.77;;;13.52;;
51654;SDS011;37732;53.106;7.030;2023-07-29T03:13:01;11.98;;;9.13;;
51654;SDS011;37732;53.106;7.030;2023-07-29T03:15:28;11.07;;;9.98;;
51654;SDS011;37732;53.106;7.030;2023-07-29T03:17:56;12.60;;;10.40;;
51654;SDS011;37732;53.106;7.030;2023-07-29T03:20:22;12.75;;;11.20;;
51654;SDS011;37732;53.106;7.030;2023-07-29T03:22:48;11.45;;;10.05;;
51654;SDS011;37732;53.106;7.030;2023-07-29T03:25:15;14.57;;;11.65;;
51654;SDS011;37732;53.106;7.030;2023-07-29T03:27:42;13.18;;;11.73;;
51654;SDS011;37732;53.106;7.030;2023-07-29T03:30:09;12.25;;;10.05;;
51654;SDS011;37732;53.106;7.030;2023-07-29T03:32:38;12.23;;;10.43;;
51654;SDS011;37732;53.106;7.030;2023-07-29T03:35:05;15.15;;;12.70;;
51654;SDS011;37732;53.106;7.030;2023-07-29T03:37:32;13.77;;;11.63;;
51654;SDS011;37732;53.106;7.030;2023-07-29T03:39:58;15.38;;;12.18;;
51654;SDS011;37732;53.106;7.030;2023-07-29T03:42:24;15.63;;;13.73;;
51654;SDS011;37732;53.106;7.030;2023-07-29T03:44:51;15.18;;;12.15;;
51654;SDS011;37732;53.106;7.030;2023-07-29T03:47:17;13.50;;;11.30;;
51654;SDS011;37732;53.106;7.030;2023-07-29T03:49:45;16.20;;;12.75;;
51654;SDS011;37732;53.106;7.030;2023-07-29T03:52:11;15.15;;;10.80;;
51654;SDS011;37732;53.106;7.030;2023-07-29T03:54:37;15.73;;;13.30;;
51654;SDS011;37732;53.106;7.030;2023-07-29T03:57:03;14.07;;;11.43;;
51654;SDS011;37732;53.106;7.030;2023-07-29T03:59:30;15.50;;;11.98;;
51654;SDS011;37732;53.106;7.030;2023-07-29T04:01:56;14.85;;;12.25;;
51654;SDS011;37732;53.106;7.030;2023-07-29T04:04:22;14.20;;;11.27;;
51654;SDS011;37732;53.106;7.030;2023-07-29T04:06:48;15.43;;;12.75;;
51654;SDS011;37732;53.106;7.030;2023-07-29T04:09:15;11.25;;;9.63;;
51654;SDS011;37732;53.106;7.030;2023-07-29T04:11:42;12.43;;;10.25;;
51654;SDS011;37732;53.106;7.030;2023-07-29T04:14:08;17.13;;;12.55;;
51654;SDS011;37732;53.106;7.030;2023-07-29T04:16:35;15.35;;;12.13;;
51654;SDS011;37732;53.106;7.030;2023-07-29T04:19:03;13.40;;;10.60;;
51654;SDS011;37732;53.106;7.030;2023-07-29T04:21:30;15.45;;;12.23;;
51654;SDS011;37732;53.106;7.030;2023-07-29T04:23:56;16.35;;;12.75;;
51654;SDS011;37732;53.106;7.030;2023-07-29T04:26:23;14.60;;;12.20;;
51654;SDS011;37732;53.106;7.030;2023-07-29T04:28:49;17.25;;;11.57;;
51654;SDS011;37732;53.106;7.030;2023-07-29T04:31:15;16.40;;;12.88;;
51654;SDS011;37732;53.106;7.030;2023-07-29T04:33:43;15.02;;;12.48;;
51654;SDS011;37732;53.106;7.030;2023-07-29T04:36:09;12.98;;;11.25;;
51654;SDS011;37732;53.106;7.030;2023-07-29T04:38:36;15.02;;;10.85;;
51654;SDS011;37732;53.106;7.030;2023-07-29T04:41:03;12.45;;;10.00;;
51654;SDS011;37732;53.106;7.030;2023-07-29T04:43:32;15.40;;;11.32;;
51654;SDS011;37732;53.106;7.030;2023-07-29T04:46:00;14.70;;;9.73;;
51654;SDS011;37732;53.106;7.030;2023-07-29T04:48:27;11.77;;;9.35;;
51654;SDS011;37732;53.106;7.030;2023-07-29T04:50:55;11.57;;;9.35;;
51654;SDS011;37732;53.106;7.030;2023-07-29T04:53:22;15.52;;;8.35;;
51654;SDS011;37732;53.106;7.030;2023-07-29T04:55:48;14.52;;;9.40;;
51654;SDS011;37732;53.106;7.030;2023-07-29T04:58:15;10.98;;;9.30;;
51654;SDS011;37732;53.106;7.030;2023-07-29T05:00:42;9.85;;;8.02;;
51654;SDS011;37732;53.106;7.030;2023-07-29T05:03:09;13.20;;;9.40;;
51654;SDS011;37732;53.106;7.030;2023-07-29T05:05:37;12.15;;;8.77;;
51654;SDS011;37732;53.106;7.030;2023-07-29T05:08:03;11.77;;;8.63;;
51654;SDS011;37732;53.106;7.030;2023-07-29T05:10:30;12.68;;;8.73;;
51654;SDS011;37732;53.106;7.030;2023-07-29T05:12:58;11.95;;;9.00;;
51654;SDS011;37732;53.106;7.030;2023-07-29T05:15:24;13.25;;;9.15;;
51654;SDS011;37732;53.106;7.030;2023-07-29T05:17:50;11.65;;;8.75;;
51654;SDS011;37732;53.106;7.030;2023-07-29T05:20:17;13.25;;;9.63;;
51654;SDS011;37732;53.106;7.030;2023-07-29T05:22:44;9.40;;;7.68;;
51654;SDS011;37732;53.106;7.030;2023-07-29T05:25:11;11.77;;;8.60;;
51654;SDS011;37732;53.106;7.030;2023-07-29T05:27:38;12.15;;;8.45;;
51654;SDS011;37732;53.106;7.030;2023-07-29T05:30:06;11.85;;;8.13;;
51654;SDS011;37732;53.106;7.030;2023-07-29T05:32:33;12.90;;;8.63;;
51654;SDS011;37732;53.106;7.030;2023-07-29T05:35:00;13.82;;;8.48;;
51654;SDS011;37732;53.106;7.030;2023-07-29T05:37:28;11.00;;;7.35;;
51654;SDS011;37732;53.106;7.030;2023-07-29T05:39:55;11.90;;;8.27;;
51654;SDS011;37732;53.106;7.030;2023-07-29T05:42:23;9.65;;;7.65;;
51654;SDS011;37732;53.106;7.030;2023-07-29T05:44:50;10.50;;;6.53;;
51654;SDS011;37732;53.106;7.030;2023-07-29T05:47:18;13.50;;;7.43;;
51654;SDS011;37732;53.106;7.030;2023-07-29T05:49:45;10.13;;;7.32;;
51654;SDS011;37732;53.106;7.030;2023-07-29T05:52:13;13.25;;;7.13;;
51654;SDS011;37732;53.106;7.030;2023-07-29T05:54:40;9.60;;;6.00;;
51654;SDS011;37732;53.106;7.030;2023-07-29T05:57:09;8.98;;;6.40;;
51654;SDS011;37732;53.106;7.030;2023-07-29T05:59:36;7.95;;;5.75;;
51654;SDS011;37732;53.106;7.030;2023-07-29T06:02:04;8.13;;;5.85;;
51654;SDS011;37732;53.106;7.030;2023-07-29T06:04:31;7.78;;;5.85;;
51654;SDS011;37732;53.106;7.030;2023-07-29T06:06:59;7.97;;;5.60;;
51654;SDS011;37732;53.106;7.030;2023-07-29T06:09:25;7.60;;;5.40;;
51654;SDS011;37732;53.106;7.030;2023-07-29T06:11:52;8.45;;;5.55;;
51654;SDS011;37732;53.106;7.030;2023-07-29T06:14:18;7.75;;;5.13;;
51654;SDS011;37732;53.106;7.030;2023-07-29T06:16:45;8.52;;;4.63;;
51654;SDS011;37732;53.106;7.030;2023-07-29T06:19:12;9.40;;;3.97;;
51654;SDS011;37732;53.106;7.030;2023-07-29T06:21:38;9.18;;;4.72;;
51654;SDS011;37732;53.106;7.030;2023-07-29T06:24:04;7.05;;;4.60;;
51654;SDS011;37732;53.106;7.030;2023-07-29T06:26:31;7.13;;;4.18;;
51654;SDS011;37732;53.106;7.030;2023-07-29T06:28:57;6.05;;;4.68;;
51654;SDS011;37732;53.106;7.030;2023-07-29T06:31:24;6.07;;;4.38;;
51654;SDS011;37732;53.106;7.030;2023-07-29T06:33:50;7.85;;;4.93;;
51654;SDS011;37732;53.106;7.030;2023-07-29T06:36:18;7.40;;;4.95;;
51654;SDS011;37732;53.106;7.030;2023-07-29T06:38:44;7.22;;;4.68;;
51654;SDS011;37732;53.106;7.030;2023-07-29T06:41:11;6.13;;;4.50;;
51654;SDS011;37732;53.106;7.030;2023-07-29T06:43:37;8.60;;;4.43;;
51654;SDS011;37732;53.106;7.030;2023-07-29T06:46:03;6.30;;;4.25;;
51654;SDS011;37732;53.106;7.030;2023-07-29T06:48:30;10.70;;;4.93;;
51654;SDS011;37732;53.106;7.030;2023-07-29T06:50:56;6.90;;;4.15;;
51654;SDS011;37732;53.106;7.030;2023-07-29T06:53:28;7.25;;;4.55;;
51654;SDS011;37732;53.106;7.030;2023-07-29T06:55:54;8.32;;;4.95;;
51654;SDS011;37732;53.106;7.030;2023-07-29T06:58:21;7.63;;;4.70;;
51654;SDS011;37732;53.106;7.030;2023-07-29T07:00:48;8.43;;;4.72;;
51654;SDS011;37732;53.106;7.030;2023-07-29T07:03:16;6.18;;;3.88;;
51654;SDS011;37732;53.106;7.030;2023-07-29T07:05:42;8.43;;;4.70;;
51654;SDS011;37732;53.106;7.030;2023-07-29T07:08:08;7.93;;;4.28;;
51654;SDS011;37732;53.106;7.030;2023-07-29T07:10:35;10.38;;;5.22;;
51654;SDS011;37732;53.106;7.030;2023-07-29T07:13:02;8.70;;;5.57;;
51654;SDS011;37732;53.106;7.030;2023-07-29T07:15:28;8.45;;;4.32;;
51654;SDS011;37732;53.106;7.030;2023-07-29T07:17:56;7.50;;;4.63;;
51654;SDS011;37732;53.106;7.030;2023-07-29T07:20:22;7.05;;;4.63;;
51654;SDS011;37732;53.106;7.030;2023-07-29T07:22:48;13.20;;;4.70;;
51654;SDS011;37732;53.106;7.030;2023-07-29T07:25:14;9.18;;;4.90;;
51654;SDS011;37732;53.106;7.030;2023-07-29T07:27:41;8.48;;;4.93;;
51654;SDS011;37732;53.106;7.030;2023-07-29T07:30:08;8.77;;;5.13;;
51654;SDS011;37732;53.106;7.030;2023-07-29T07:32:35;15.07;;;5.53;;
51654;SDS011;37732;53.106;7.030;2023-07-29T07:35:02;8.35;;;4.90;;
51654;SDS011;37732;53.106;7.030;2023-07-29T07:37:29;9.25;;;6.30;;
51654;SDS011;37732;53.106;7.030;2023-07-29T07:39:55;7.00;;;5.75;;
51654;SDS011;37732;53.106;7.030;2023-07-29T07:42:22;10.77;;;6.03;;
51654;SDS011;37732;53.106;7.030;2023-07-29T07:44:49;9.10;;;6.05;;
51654;SDS011;37732;53.106;7.030;2023-07-29T07:47:15;9.52;;;6.95;;
51654;SDS011;37732;53.106;7.030;2023-07-29T07:49:41;10.27;;;6.28;;
51654;SDS011;37732;53.106;7.030;2023-07-29T07:52:07;8.35;;;6.15;;
51654;SDS011;37732;53.106;7.030;2023-07-29T07:54:35;9.13;;;6.13;;
51654;SDS011;37732;53.106;7.030;2023-07-29T07:57:02;10.15;;;6.03;;
51654;SDS011;37732;53.106;7.030;2023-07-29T07:59:30;8.93;;;6.22;;
51654;SDS011;37732;53.106;7.030;2023-07-29T08:01:56;8.32;;;5.95;;
51654;SDS011;37732;53.106;7.030;2023-07-29T08:04:23;8.52;;;6.18;;
51654;SDS011;37732;53.106;7.030;2023-07-29T08:06:50;12.07;;;6.20;;
51654;SDS011;37732;53.106;7.030;2023-07-29T08:09:16;11.82;;;6.80;;
51654;SDS011;37732;53.106;7.030;2023-07-29T08:11:43;8.82;;;6.40;;
51654;SDS011;37732;53.106;7.030;2023-07-29T08:14:10;8.80;;;6.28;;
51654;SDS011;37732;53.106;7.030;2023-07-29T08:16:36;9.43;;;7.05;;
51654;SDS011;37732;53.106;7.030;2023-07-29T08:19:03;6.90;;;6.05;;
51654;SDS011;37732;53.106;7.030;2023-07-29T08:21:30;10.57;;;7.88;;
51654;SDS011;37732;53.106;7.030;2023-07-29T08:23:57;8.82;;;7.22;;
51654;SDS011;37732;53.106;7.030;2023-07-29T08:26:24;15.85;;;7.93;;
51654;SDS011;37732;53.106;7.030;2023-07-29T08:28:50;10.18;;;7.85;;
51654;SDS011;37732;53.106;7.030;2023-07-29T08:31:17;8.50;;;7.13;;
51654;SDS011;37732;53.106;7.030;2023-07-29T08:33:44;8.48;;;7.45;;
51654;SDS011;37732;53.106;7.030;2023-07-29T08:36:10;9.43;;;7.55;;
51654;SDS011;37732;53.106;7.030;2023-07-29T08:38:38;8.98;;;7.90;;
51654;SDS011;37732;53.106;7.030;2023-07-29T08:43:31;12.13;;;7.45;;
51654;SDS011;37732;53.106;7.030;2023-07-29T08:45:58;11.35;;;7.97;;
51654;SDS011;37732;53.106;7.030;2023-07-29T08:48:41;10.73;;;7.28;;
51654;SDS011;37732;53.106;7.030;2023-07-29T08:51:08;11.67;;;6.80;;
51654;SDS011;37732;53.106;7.030;2023-07-29T08:53:35;9.90;;;7.20;;
51654;SDS011;37732;53.106;7.030;2023-07-29T08:56:02;11.02;;;6.45;;
51654;SDS011;37732;53.106;7.030;2023-07-29T08:58:29;10.73;;;6.75;;
51654;SDS011;37732;53.106;7.030;2023-07-29T09:00:55;7.22;;;6.20;;
51654;SDS011;37732;53.106;7.030;2023-07-29T09:03:22;8.88;;;5.78;;
51654;SDS011;37732;53.106;7.030;2023-07-29T09:05:50;8.05;;;5.88;;
51654;SDS011;37732;53.106;7.030;2023-07-29T09:08:18;9.65;;;6.30;;
51654;SDS011;37732;53.106;7.030;2023-07-29T09:10:46;10.85;;;6.45;;
51654;SDS011;37732;53.106;7.030;2023-07-29T09:13:12;9.52;;;5.90;;
51654;SDS011;37732;53.106;7.030;2023-07-29T09:15:38;7.90;;;5.47;;
51654;SDS011;37732;53.106;7.030;2023-07-29T09:18:11;9.40;;;5.72;;
51654;SDS011;37732;53.106;7.030;2023-07-29T09:20:37;8.37;;;6.00;;
51654;SDS011;37732;53.106;7.030;2023-07-29T09:23:07;11.45;;;5.80;;
51654;SDS011;37732;53.106;7.030;2023-07-29T09:25:34;6.57;;;5.50;;
51654;SDS011;37732;53.106;7.030;2023-07-29T09:28:07;6.47;;;5.80;;
51654;SDS011;37732;53.106;7.030;2023-07-29T09:30:33;9.57;;;6.10;;
51654;SDS011;37732;53.106;7.030;2023-07-29T09:33:01;9.00;;;5.20;;
51654;SDS011;37732;53.106;7.030;2023-07-29T09:35:28;8.02;;;4.90;;
51654;SDS011;37732;53.106;7.030;2023-07-29T09:37:54;8.68;;;5.10;;
51654;SDS011;37732;53.106;7.030;2023-07-29T09:40:22;6.43;;;4.32;;
51654;SDS011;37732;53.106;7.030;2023-07-29T09:42:52;7.60;;;4.47;;
51654;SDS011;37732;53.106;7.030;2023-07-29T09:45:23;7.38;;;4.63;;
51654;SDS011;37732;53.106;7.030;2023-07-29T09:47:49;8.10;;;4.35;;
51654;SDS011;37732;53.106;7.030;2023-07-29T09:50:16;6.20;;;4.43;;
51654;SDS011;37732;53.106;7.030;2023-07-29T09:52:43;6.82;;;4.15;;
51654;SDS011;37732;53.106;7.030;2023-07-29T09:55:13;8.95;;;4.30;;
51654;SDS011;37732;53.106;7.030;2023-07-29T09:57:40;6.80;;;4.07;;
51654;SDS011;37732;53.106;7.030;2023-07-29T10:00:07;7.95;;;4.43;;
51654;SDS011;37732;53.106;7.030;2023-07-29T10:02:39;8.05;;;4.57;;
51654;SDS011;37732;53.106;7.030;2023-07-29T10:05:07;5.35;;;3.45;;
51654;SDS011;37732;53.106;7.030;2023-07-29T10:07:38;4.88;;;3.55;;
51654;SDS011;37732;53.106;7.030;2023-07-29T10:10:06;8.63;;;4.38;;
51654;SDS011;37732;53.106;7.030;2023-07-29T10:12:33;7.97;;;3.38;;
51654;SDS011;37732;53.106;7.030;2023-07-29T10:15:04;5.35;;;2.72;;
51654;SDS011;37732;53.106;7.030;2023-07-29T10:17:34;4.75;;;3.00;;
51654;SDS011;37732;53.106;7.030;2023-07-29T10:20:01;4.18;;;2.70;;
51654;SDS011;37732;53.106;7.030;2023-07-29T10:22:32;5.25;;;3.42;;
51654;SDS011;37732;53.106;7.030;2023-07-29T10:25:04;7.50;;;2.95;;
51654;SDS011;37732;53.106;7.030;2023-07-29T10:27:33;5.63;;;2.75;;
51654;SDS011;37732;53.106;7.030;2023-07-29T10:30:01;5.95;;;3.00;;
51654;SDS011;37732;53.106;7.030;2023-07-29T10:32:28;5.18;;;2.55;;
51654;SDS011;37732;53.106;7.030;2023-07-29T10:34:57;5.20;;;2.80;;
51654;SDS011;37732;53.106;7.030;2023-07-29T10:37:23;5.07;;;3.13;;
51654;SDS011;37732;53.106;7.030;2023-07-29T10:39:52;4.28;;;2.28;;
51654;SDS011;37732;53.106;7.030;2023-07-29T10:42:20;5.90;;;2.65;;
51654;SDS011;37732;53.106;7.030;2023-07-29T10:44:51;6.35;;;3.22;;
51654;SDS011;37732;53.106;7.030;2023-07-29T10:47:19;4.88;;;2.67;;
51654;SDS011;37732;53.106;7.030;2023-07-29T10:49:47;5.30;;;2.90;;
51654;SDS011;37732;53.106;7.030;2023-07-29T10:52:14;5.03;;;3.08;;
51654;SDS011;37732;53.106;7.030;2023-07-29T10:54:45;4.78;;;3.17;;
51654;SDS011;37732;53.106;7.030;2023-07-29T10:57:15;6.32;;;3.28;;
51654;SDS011;37732;53.106;7.030;2023-07-29T10:59:55;6.50;;;3.20;;
51654;SDS011;37732;53.106;7.030;2023-07-29T11:02:28;5.10;;;3.22;;
51654;SDS011;37732;53.106;7.030;2023-07-29T11:04:54;6.28;;;3.60;;
51654;SDS011;37732;53.106;7.030;2023-07-29T11:07:22;7.95;;;3.67;;
51654;SDS011;37732;53.106;7.030;2023-07-29T11:09:52;8.55;;;4.13;;
51654;SDS011;37732;53.106;7.030;2023-07-29T11:15:11;5.78;;;3.00;;
51654;SDS011;37732;53.106;7.030;2023-07-29T11:17:52;5.47;;;3.00;;
51654;SDS011;37732;53.106;7.030;2023-07-29T11:20:20;5.82;;;2.20;;
51654;SDS011;37732;53.106;7.030;2023-07-29T11:22:47;4.35;;;2.58;;
51654;SDS011;37732;53.106;7.030;2023-07-29T11:25:15;6.95;;;2.20;;
51654;SDS011;37732;53.106;7.030;2023-07-29T11:27:42;4.15;;;2.15;;
51654;SDS011;37732;53.106;7.030;2023-07-29T11:30:10;4.13;;;2.03;;
51654;SDS011;37732;53.106;7.030;2023-07-29T11:32:38;6.15;;;2.38;;
51654;SDS011;37732;53.106;7.030;2023-07-29T11:35:15;4.43;;;2.10;;
51654;SDS011;37732;53.106;7.030;2023-07-29T11:37:44;3.85;;;2.20;;
51654;SDS011;37732;53.106;7.030;2023-07-29T11:40:13;3.65;;;2.38;;
51654;SDS011;37732;53.106;7.030;2023-07-29T11:42:40;6.05;;;2.70;;
51654;SDS011;37732;53.106;7.030;2023-07-29T11:45:07;5.53;;;2.50;;
51654;SDS011;37732;53.106;7.030;2023-07-29T11:47:35;6.22;;;2.40;;
51654;SDS011;37732;53.106;7.030;2023-07-29T11:50:06;5.57;;;2.03;;
51654;SDS011;37732;53.106;7.030;2023-07-29T11:52:37;5.65;;;2.35;;
51654;SDS011;37732;53.106;7.030;2023-07-29T11:55:06;5.07;;;2.17;;
51654;SDS011;37732;53.106;7.030;2023-07-29T11:57:34;5.72;;;2.22;;
51654;SDS011;37732;53.106;7.030;2023-07-29T12:00:07;5.78;;;2.50;;
51654;SDS011;37732;53.106;7.030;2023-07-29T12:02:38;4.93;;;1.80;;
51654;SDS011;37732;53.106;7.030;2023-07-29T12:05:05;2.90;;;1.90;;
51654;SDS011;37732;53.106;7.030;2023-07-29T12:07:33;4.65;;;2.10;;
51654;SDS011;37732;53.106;7.030;2023-07-29T12:10:00;3.25;;;2.00;;
51654;SDS011;37732;53.106;7.030;2023-07-29T12:12:28;4.53;;;2.17;;
51654;SDS011;37732;53.106;7.030;2023-07-29T12:14:56;5.25;;;2.10;;
51654;SDS011;37732;53.106;7.030;2023-07-29T12:17:23;5.10;;;2.47;;
51654;SDS011;37732;53.106;7.030;2023-07-29T12:19:50;6.32;;;2.40;;
51654;SDS011;37732;53.106;7.030;2023-07-29T12:22:20;7.30;;;2.83;;
51654;SDS011;37732;53.106;7.030;2023-07-29T12:24:48;6.18;;;2.30;;
51654;SDS011;37732;53.106;7.030;2023-07-29T12:27:18;4.15;;;2.30;;
51654;SDS011;37732;53.106;7.030;2023-07-29T12:29:53;4.15;;;2.53;;
51654;SDS011;37732;53.106;7.030;2023-07-29T12:32:20;7.88;;;2.70;;
51654;SDS011;37732;53.106;7.030;2023-07-29T12:34:53;6.73;;;3.23;;
51654;SDS011;37732;53.106;7.030;2023-07-29T12:37:20;7.28;;;3.40;;
51654;SDS011;37732;53.106;7.030;2023-07-29T12:39:49;4.93;;;2.78;;
51654;SDS011;37732;53.106;7.030;2023-07-29T12:42:16;5.70;;;2.60;;
51654;SDS011;37732;53.106;7.030;2023-07-29T12:44:42;4.80;;;2.75;;
51654;SDS011;37732;53.106;7.030;2023-07-29T12:47:08;5.43;;;2.83;;
51654;SDS011;37732;53.106;7.030;2023-07-29T12:49:36;6.18;;;2.88;;
51654;SDS011;37732;53.106;7.030;2023-07-29T12:52:04;6.70;;;2.78;;
51654;SDS011;37732;53.106;7.030;2023-07-29T12:54:30;4.80;;;2.78;;
51654;SDS011;37732;53.106;7.030;2023-07-29T12:56:57;6.55;;;3.28;;
51654;SDS011;37732;53.106;7.030;2023-07-29T12:59:23;5.60;;;3.25;;
51654;SDS011;37732;53.106;7.030;2023-07-29T13:01:51;7.57;;;3.10;;
51654;SDS011;37732;53.106;7.030;2023-07-29T13:04:17;5.85;;;3.00;;
51654;SDS011;37732;53.106;7.030;2023-07-29T13:06:43;8.48;;;3.97;;
51654;SDS011;37732;53.106;7.030;2023-07-29T13:09:10;4.57;;;2.90;;
51654;SDS011;37732;53.106;7.030;2023-07-29T13:11:36;5.70;;;3.22;;
51654;SDS011;37732;53.106;7.030;2023-07-29T13:14:03;8.18;;;3.30;;
51654;SDS011;37732;53.106;7.030;2023-07-29T13:16:30;9.35;;;3.40;;
51654;SDS011;37732;53.106;7.030;2023-07-29T13:18:56;6.45;;;3.20;;
51654;SDS011;37732;53.106;7.030;2023-07-29T13:21:23;5.00;;;3.03;;
51654;SDS011;37732;53.106;7.030;2023-07-29T13:23:49;4.60;;;2.78;;
51654;SDS011;37732;53.106;7.030;2023-07-29T13:26:16;3.97;;;2.38;;
51654;SDS011;37732;53.106;7.030;2023-07-29T13:28:44;6.53;;;2.92;;
51654;SDS011;37732;53.106;7.030;2023-07-29T13:31:10;5.82;;;2.65;;
51654;SDS011;37732;53.106;7.030;2023-07-29T13:33:37;4.90;;;2.95;;
51654;SDS011;37732;53.106;7.030;2023-07-29T13:36:03;5.03;;;2.95;;
51654;SDS011;37732;53.106;7.030;2023-07-29T13:38:31;5.55;;;2.80;;
51654;SDS011;37732;53.106;7.030;2023-07-29T13:40:57;5.57;;;2.38;;
51654;SDS011;37732;53.106;7.030;2023-07-29T13:43:23;4.88;;;2.70;;
51654;SDS011;37732;53.106;7.030;2023-07-29T13:45:51;4.60;;;2.78;;
51654;SDS011;37732;53.106;7.030;2023-07-29T13:48:17;4.70;;;2.53;;
51654;SDS011;37732;53.106;7.030;2023-07-29T13:50:44;6.10;;;2.30;;
51654;SDS011;37732;53.106;7.030;2023-07-29T13:53:10;3.38;;;2.08;;
51654;SDS011;37732;53.106;7.030;2023-07-29T13:55:37;5.95;;;2.25;;
51654;SDS011;37732;53.106;7.030;2023-07-29T13:58:03;4.85;;;2.40;;
51654;SDS011;37732;53.106;7.030;2023-07-29T14:00:30;4.63;;;2.40;;
51654;SDS011;37732;53.106;7.030;2023-07-29T14:02:56;4.30;;;1.80;;
51654;SDS011;37732;53.106;7.030;2023-07-29T14:05:23;4.53;;;1.65;;
51654;SDS011;37732;53.106;7.030;2023-07-29T14:07:49;3.63;;;1.67;;
51654;SDS011;37732;53.106;7.030;2023-07-29T14:10:16;3.60;;;1.90;;
51654;SDS011;37732;53.106;7.030;2023-07-29T14:12:42;3.45;;;1.63;;
51654;SDS011;37732;53.106;7.030;2023-07-29T14:15:09;3.58;;;1.45;;
51654;SDS011;37732;53.106;7.030;2023-07-29T14:17:35;3.42;;;1.70;;
51654;SDS011;37732;53.106;7.030;2023-07-29T14:20:03;3.47;;;1.70;;
51654;SDS011;37732;53.106;7.030;2023-07-29T14:22:30;4.22;;;2.38;;
51654;SDS011;37732;53.106;7.030;2023-07-29T14:24:57;8.60;;;2.58;;
51654;SDS011;37732;53.106;7.030;2023-07-29T14:27:24;3.67;;;1.70;;
51654;SDS011;37732;53.106;7.030;2023-07-29T14:29:50;4.45;;;2.00;;
51654;SDS011;37732;53.106;7.030;2023-07-29T14:32:17;3.00;;;1.80;;
51654;SDS011;37732;53.106;7.030;2023-07-29T14:34:43;3.90;;;2.10;;
51654;SDS011;37732;53.106;7.030;2023-07-29T14:37:10;3.60;;;1.50;;
51654;SDS011;37732;53.106;7.030;2023-07-29T14:39:37;4.30;;;1.80;;
51654;SDS011;37732;53.106;7.030;2023-07-29T14:42:03;3.03;;;1.38;;
51654;SDS011;37732;53.106;7.030;2023-07-29T14:44:30;2.38;;;1.52;;
51654;SDS011;37732;53.106;7.030;2023-07-29T14:46:57;2.38;;;1.20;;
51654;SDS011;37732;53.106;7.030;2023-07-29T14:49:24;3.50;;;1.50;;
51654;SDS011;37732;53.106;7.030;2023-07-29T14:51:50;1.80;;;1.10;;
51654;SDS011;37732;53.106;7.030;2023-07-29T14:54:17;1.90;;;1.30;;
51654;SDS011;37732;53.106;7.030;2023-07-29T14:56:43;1.77;;;1.15;;
51654;SDS011;37732;53.106;7.030;2023-07-29T14:59:11;3.33;;;1.50;;